Inlet Beach, Florida
Current Conditions -  °F | °C
As of 5:53 AM on Monday 22 Dec 2014 (Local Time) from KECP Reporting Station
Light Rain Light Rain  
Wind Chill: 55°   Ceiling: 200
Heat Index: 55°   Visibility: 10mi
Dew Point: 54°   Wind: 3mph
Humidity: 96%   Direction: 350°N
Pressure: 29.95"   Gusts: NA
Location:  30.3525°N, 85.9093°W
Report Text: KECP 221153Z 35003KT 10SM -RA OVC002 13/12 A2995 RMK AO2 RAB13 SLP153 P0002 60010 70012 T01280122 10133 20128 53001 $
Loading
Personal Weather Stations






























Interactive Weather Map New forecast layout! Learn more

10-Day Weather Forecast

Advertisements
Track Severe Weather on mobile